sensor_id;sensor_type;location;lat;lon;timestamp;P1;durP1;ratioP1;P2;durP2;ratioP2
63046;SDS011;62025;39.238;9.126;2023-07-16T00:00:08;13.98;;;4.95;;
63046;SDS011;62025;39.238;9.126;2023-07-16T00:02:37;12.25;;;5.18;;
63046;SDS011;62025;39.238;9.126;2023-07-16T00:05:04;13.45;;;5.15;;
63046;SDS011;62025;39.238;9.126;2023-07-16T00:07:31;16.75;;;5.20;;
63046;SDS011;62025;39.238;9.126;2023-07-16T00:09:57;18.20;;;5.82;;
63046;SDS011;62025;39.238;9.126;2023-07-16T00:12:23;20.05;;;6.07;;
63046;SDS011;62025;39.238;9.126;2023-07-16T00:14:48;12.50;;;5.20;;
63046;SDS011;62025;39.238;9.126;2023-07-16T00:17:14;12.85;;;5.18;;
63046;SDS011;62025;39.238;9.126;2023-07-16T00:19:41;19.73;;;5.55;;
63046;SDS011;62025;39.238;9.126;2023-07-16T00:22:07;13.98;;;4.88;;
63046;SDS011;62025;39.238;9.126;2023-07-16T00:24:33;11.88;;;4.57;;
63046;SDS011;62025;39.238;9.126;2023-07-16T00:26:59;11.18;;;4.38;;
63046;SDS011;62025;39.238;9.126;2023-07-16T00:29:25;10.90;;;4.43;;
63046;SDS011;62025;39.238;9.126;2023-07-16T00:31:51;11.93;;;4.50;;
63046;SDS011;62025;39.238;9.126;2023-07-16T00:34:17;12.30;;;4.22;;
63046;SDS011;62025;39.238;9.126;2023-07-16T00:36:43;12.15;;;4.38;;
63046;SDS011;62025;39.238;9.126;2023-07-16T00:39:09;13.70;;;4.15;;
63046;SDS011;62025;39.238;9.126;2023-07-16T00:41:35;11.88;;;3.80;;
63046;SDS011;62025;39.238;9.126;2023-07-16T00:44:02;8.85;;;4.13;;
63046;SDS011;62025;39.238;9.126;2023-07-16T00:46:28;9.00;;;3.88;;
63046;SDS011;62025;39.238;9.126;2023-07-16T00:48:54;13.25;;;4.10;;
63046;SDS011;62025;39.238;9.126;2023-07-16T00:51:21;12.82;;;4.22;;
63046;SDS011;62025;39.238;9.126;2023-07-16T00:53:49;14.80;;;4.30;;
63046;SDS011;62025;39.238;9.126;2023-07-16T00:56:16;9.98;;;4.18;;
63046;SDS011;62025;39.238;9.126;2023-07-16T00:58:43;16.23;;;4.68;;
63046;SDS011;62025;39.238;9.126;2023-07-16T01:01:10;13.55;;;4.35;;
63046;SDS011;62025;39.238;9.126;2023-07-16T01:03:36;11.23;;;4.43;;
63046;SDS011;62025;39.238;9.126;2023-07-16T01:11:20;14.38;;;4.40;;
63046;SDS011;62025;39.238;9.126;2023-07-16T01:13:47;10.82;;;4.32;;
63046;SDS011;62025;39.238;9.126;2023-07-16T01:18:47;12.52;;;4.07;;
63046;SDS011;62025;39.238;9.126;2023-07-16T01:21:23;13.65;;;4.13;;
63046;SDS011;62025;39.238;9.126;2023-07-16T01:29:51;10.93;;;4.10;;
63046;SDS011;62025;39.238;9.126;2023-07-16T01:32:19;9.90;;;4.05;;
63046;SDS011;62025;39.238;9.126;2023-07-16T01:34:47;8.18;;;3.92;;
63046;SDS011;62025;39.238;9.126;2023-07-16T01:37:15;10.88;;;4.30;;
63046;SDS011;62025;39.238;9.126;2023-07-16T01:39:41;11.32;;;4.13;;
63046;SDS011;62025;39.238;9.126;2023-07-16T01:42:09;9.50;;;3.92;;
63046;SDS011;62025;39.238;9.126;2023-07-16T01:44:36;12.13;;;4.07;;
63046;SDS011;62025;39.238;9.126;2023-07-16T01:47:04;14.27;;;3.88;;
63046;SDS011;62025;39.238;9.126;2023-07-16T01:49:40;8.18;;;4.32;;
63046;SDS011;62025;39.238;9.126;2023-07-16T01:52:07;8.80;;;3.80;;
63046;SDS011;62025;39.238;9.126;2023-07-16T01:54:34;7.30;;;3.50;;
63046;SDS011;62025;39.238;9.126;2023-07-16T01:57:01;7.55;;;3.78;;
63046;SDS011;62025;39.238;9.126;2023-07-16T01:59:27;8.35;;;4.05;;
63046;SDS011;62025;39.238;9.126;2023-07-16T02:01:55;10.88;;;3.80;;
63046;SDS011;62025;39.238;9.126;2023-07-16T02:04:21;7.15;;;4.00;;
63046;SDS011;62025;39.238;9.126;2023-07-16T02:06:47;9.50;;;4.00;;
63046;SDS011;62025;39.238;9.126;2023-07-16T02:09:18;10.27;;;4.03;;
63046;SDS011;62025;39.238;9.126;2023-07-16T02:11:46;10.77;;;4.07;;
63046;SDS011;62025;39.238;9.126;2023-07-16T02:14:12;12.02;;;4.63;;
63046;SDS011;62025;39.238;9.126;2023-07-16T02:16:39;9.35;;;4.25;;
63046;SDS011;62025;39.238;9.126;2023-07-16T02:19:05;12.68;;;4.50;;
63046;SDS011;62025;39.238;9.126;2023-07-16T02:21:31;10.68;;;4.40;;
63046;SDS011;62025;39.238;9.126;2023-07-16T02:23:57;12.25;;;4.70;;
63046;SDS011;62025;39.238;9.126;2023-07-16T02:26:24;14.98;;;4.50;;
63046;SDS011;62025;39.238;9.126;2023-07-16T02:28:50;10.40;;;4.50;;
63046;SDS011;62025;39.238;9.126;2023-07-16T02:31:16;10.85;;;4.22;;
63046;SDS011;62025;39.238;9.126;2023-07-16T02:33:42;11.85;;;4.22;;
63046;SDS011;62025;39.238;9.126;2023-07-16T02:36:08;12.23;;;4.35;;
63046;SDS011;62025;39.238;9.126;2023-07-16T02:38:34;16.60;;;4.60;;
63046;SDS011;62025;39.238;9.126;2023-07-16T02:41:00;13.18;;;4.50;;
63046;SDS011;62025;39.238;9.126;2023-07-16T02:43:26;12.70;;;4.57;;
63046;SDS011;62025;39.238;9.126;2023-07-16T02:45:52;12.20;;;4.50;;
63046;SDS011;62025;39.238;9.126;2023-07-16T02:48:18;9.75;;;4.20;;
63046;SDS011;62025;39.238;9.126;2023-07-16T02:50:44;13.68;;;4.90;;
63046;SDS011;62025;39.238;9.126;2023-07-16T02:53:10;8.38;;;4.40;;
63046;SDS011;62025;39.238;9.126;2023-07-16T02:55:36;16.60;;;4.88;;
63046;SDS011;62025;39.238;9.126;2023-07-16T02:58:02;11.63;;;4.82;;
63046;SDS011;62025;39.238;9.126;2023-07-16T03:00:32;9.48;;;4.50;;
63046;SDS011;62025;39.238;9.126;2023-07-16T03:02:59;15.00;;;4.53;;
63046;SDS011;62025;39.238;9.126;2023-07-16T03:05:26;15.50;;;4.50;;
63046;SDS011;62025;39.238;9.126;2023-07-16T03:07:53;11.48;;;4.30;;
63046;SDS011;62025;39.238;9.126;2023-07-16T03:10:20;7.13;;;4.10;;
63046;SDS011;62025;39.238;9.126;2023-07-16T03:12:47;11.57;;;4.50;;
63046;SDS011;62025;39.238;9.126;2023-07-16T03:15:13;11.20;;;4.63;;
63046;SDS011;62025;39.238;9.126;2023-07-16T03:17:39;9.20;;;4.13;;
63046;SDS011;62025;39.238;9.126;2023-07-16T03:20:05;11.02;;;4.80;;
63046;SDS011;62025;39.238;9.126;2023-07-16T03:22:33;9.10;;;4.57;;
63046;SDS011;62025;39.238;9.126;2023-07-16T03:24:59;11.88;;;4.78;;
63046;SDS011;62025;39.238;9.126;2023-07-16T03:27:25;13.32;;;4.43;;
63046;SDS011;62025;39.238;9.126;2023-07-16T03:29:56;8.00;;;4.57;;
63046;SDS011;62025;39.238;9.126;2023-07-16T03:32:23;9.70;;;4.07;;
63046;SDS011;62025;39.238;9.126;2023-07-16T03:34:49;9.68;;;4.97;;
63046;SDS011;62025;39.238;9.126;2023-07-16T03:37:15;10.25;;;4.32;;
63046;SDS011;62025;39.238;9.126;2023-07-16T03:39:41;10.50;;;4.28;;
63046;SDS011;62025;39.238;9.126;2023-07-16T03:42:07;10.43;;;4.28;;
63046;SDS011;62025;39.238;9.126;2023-07-16T03:44:33;10.90;;;4.90;;
63046;SDS011;62025;39.238;9.126;2023-07-16T03:47:01;9.73;;;4.28;;
63046;SDS011;62025;39.238;9.126;2023-07-16T03:49:27;10.20;;;4.43;;
63046;SDS011;62025;39.238;9.126;2023-07-16T03:51:53;15.07;;;4.63;;
63046;SDS011;62025;39.238;9.126;2023-07-16T03:54:19;9.38;;;4.13;;
63046;SDS011;62025;39.238;9.126;2023-07-16T03:56:45;12.20;;;4.82;;
63046;SDS011;62025;39.238;9.126;2023-07-16T03:59:11;10.38;;;4.32;;
63046;SDS011;62025;39.238;9.126;2023-07-16T04:01:37;8.10;;;4.07;;
63046;SDS011;62025;39.238;9.126;2023-07-16T04:04:03;8.85;;;4.50;;
63046;SDS011;62025;39.238;9.126;2023-07-16T04:06:29;12.60;;;4.85;;
63046;SDS011;62025;39.238;9.126;2023-07-16T04:08:55;10.35;;;4.72;;
63046;SDS011;62025;39.238;9.126;2023-07-16T04:11:21;12.07;;;5.03;;
63046;SDS011;62025;39.238;9.126;2023-07-16T04:13:47;9.27;;;4.70;;
63046;SDS011;62025;39.238;9.126;2023-07-16T04:16:13;11.77;;;5.45;;
63046;SDS011;62025;39.238;9.126;2023-07-16T04:18:39;8.88;;;4.85;;
63046;SDS011;62025;39.238;9.126;2023-07-16T04:21:05;12.25;;;4.82;;
63046;SDS011;62025;39.238;9.126;2023-07-16T04:23:31;17.98;;;4.85;;
63046;SDS011;62025;39.238;9.126;2023-07-16T04:25:57;17.20;;;4.82;;
63046;SDS011;62025;39.238;9.126;2023-07-16T04:28:23;11.50;;;4.65;;
63046;SDS011;62025;39.238;9.126;2023-07-16T04:30:49;9.27;;;4.60;;
63046;SDS011;62025;39.238;9.126;2023-07-16T04:33:15;16.40;;;5.60;;
63046;SDS011;62025;39.238;9.126;2023-07-16T04:35:41;13.05;;;4.40;;
63046;SDS011;62025;39.238;9.126;2023-07-16T04:38:07;12.90;;;5.10;;
63046;SDS011;62025;39.238;9.126;2023-07-16T04:40:33;12.73;;;4.90;;
63046;SDS011;62025;39.238;9.126;2023-07-16T04:42:59;12.68;;;4.70;;
63046;SDS011;62025;39.238;9.126;2023-07-16T04:45:25;15.52;;;4.65;;
63046;SDS011;62025;39.238;9.126;2023-07-16T04:47:51;12.48;;;4.28;;
63046;SDS011;62025;39.238;9.126;2023-07-16T04:50:17;14.20;;;4.55;;
63046;SDS011;62025;39.238;9.126;2023-07-16T04:52:43;11.32;;;5.25;;
63046;SDS011;62025;39.238;9.126;2023-07-16T04:55:09;12.50;;;4.57;;
63046;SDS011;62025;39.238;9.126;2023-07-16T04:57:36;13.82;;;4.90;;
63046;SDS011;62025;39.238;9.126;2023-07-16T05:00:02;17.00;;;4.93;;
63046;SDS011;62025;39.238;9.126;2023-07-16T05:02:31;11.15;;;4.68;;
63046;SDS011;62025;39.238;9.126;2023-07-16T05:04:58;12.95;;;4.53;;
63046;SDS011;62025;39.238;9.126;2023-07-16T05:07:24;18.23;;;5.50;;
63046;SDS011;62025;39.238;9.126;2023-07-16T05:09:50;11.65;;;4.95;;
63046;SDS011;62025;39.238;9.126;2023-07-16T05:12:16;12.90;;;4.60;;
63046;SDS011;62025;39.238;9.126;2023-07-16T05:14:45;10.30;;;4.47;;
63046;SDS011;62025;39.238;9.126;2023-07-16T05:17:13;13.43;;;4.70;;
63046;SDS011;62025;39.238;9.126;2023-07-16T05:19:40;13.15;;;4.72;;
63046;SDS011;62025;39.238;9.126;2023-07-16T05:22:07;11.80;;;4.87;;
63046;SDS011;62025;39.238;9.126;2023-07-16T05:24:33;11.30;;;4.80;;
63046;SDS011;62025;39.238;9.126;2023-07-16T05:26:59;15.65;;;4.90;;
63046;SDS011;62025;39.238;9.126;2023-07-16T05:29:26;13.27;;;5.00;;
63046;SDS011;62025;39.238;9.126;2023-07-16T05:31:52;9.57;;;4.80;;
63046;SDS011;62025;39.238;9.126;2023-07-16T05:34:18;15.82;;;4.70;;
63046;SDS011;62025;39.238;9.126;2023-07-16T05:36:44;13.30;;;5.05;;
63046;SDS011;62025;39.238;9.126;2023-07-16T05:39:10;13.48;;;4.78;;
63046;SDS011;62025;39.238;9.126;2023-07-16T05:41:39;16.13;;;5.18;;
63046;SDS011;62025;39.238;9.126;2023-07-16T05:44:06;9.53;;;4.40;;
63046;SDS011;62025;39.238;9.126;2023-07-16T05:46:33;11.27;;;4.93;;
63046;SDS011;62025;39.238;9.126;2023-07-16T05:48:59;9.65;;;4.60;;
63046;SDS011;62025;39.238;9.126;2023-07-16T05:51:25;8.52;;;4.28;;
63046;SDS011;62025;39.238;9.126;2023-07-16T05:53:51;11.20;;;4.40;;
63046;SDS011;62025;39.238;9.126;2023-07-16T05:56:17;14.15;;;4.53;;
63046;SDS011;62025;39.238;9.126;2023-07-16T05:58:43;16.02;;;5.07;;
63046;SDS011;62025;39.238;9.126;2023-07-16T06:01:09;18.70;;;5.50;;
63046;SDS011;62025;39.238;9.126;2023-07-16T06:03:35;12.52;;;5.00;;
63046;SDS011;62025;39.238;9.126;2023-07-16T06:06:02;14.88;;;5.35;;
63046;SDS011;62025;39.238;9.126;2023-07-16T06:08:28;17.65;;;5.32;;
63046;SDS011;62025;39.238;9.126;2023-07-16T06:10:53;12.73;;;4.88;;
63046;SDS011;62025;39.238;9.126;2023-07-16T06:13:20;11.93;;;5.38;;
63046;SDS011;62025;39.238;9.126;2023-07-16T06:15:47;13.70;;;5.43;;
63046;SDS011;62025;39.238;9.126;2023-07-16T06:18:13;12.80;;;5.40;;
63046;SDS011;62025;39.238;9.126;2023-07-16T06:20:42;10.43;;;5.40;;
63046;SDS011;62025;39.238;9.126;2023-07-16T06:23:10;16.33;;;5.50;;
63046;SDS011;62025;39.238;9.126;2023-07-16T06:25:37;19.73;;;5.80;;
63046;SDS011;62025;39.238;9.126;2023-07-16T06:28:05;13.50;;;5.55;;
63046;SDS011;62025;39.238;9.126;2023-07-16T06:30:31;15.38;;;5.38;;
63046;SDS011;62025;39.238;9.126;2023-07-16T06:32:59;16.70;;;6.57;;
63046;SDS011;62025;39.238;9.126;2023-07-16T06:35:25;15.60;;;5.90;;
63046;SDS011;62025;39.238;9.126;2023-07-16T06:37:51;16.05;;;6.03;;
63046;SDS011;62025;39.238;9.126;2023-07-16T06:40:17;15.95;;;6.10;;
63046;SDS011;62025;39.238;9.126;2023-07-16T06:42:43;14.40;;;6.05;;
63046;SDS011;62025;39.238;9.126;2023-07-16T06:45:09;20.52;;;5.78;;
63046;SDS011;62025;39.238;9.126;2023-07-16T06:47:35;14.25;;;6.07;;
63046;SDS011;62025;39.238;9.126;2023-07-16T06:50:01;15.82;;;6.05;;
63046;SDS011;62025;39.238;9.126;2023-07-16T06:52:28;18.45;;;5.55;;
63046;SDS011;62025;39.238;9.126;2023-07-16T06:54:56;13.95;;;5.75;;
63046;SDS011;62025;39.238;9.126;2023-07-16T06:57:22;12.57;;;5.78;;
63046;SDS011;62025;39.238;9.126;2023-07-16T06:59:49;17.08;;;5.57;;
63046;SDS011;62025;39.238;9.126;2023-07-16T07:02:18;12.50;;;5.57;;
63046;SDS011;62025;39.238;9.126;2023-07-16T07:04:44;17.30;;;6.03;;
63046;SDS011;62025;39.238;9.126;2023-07-16T07:07:10;15.23;;;5.50;;
63046;SDS011;62025;39.238;9.126;2023-07-16T07:09:36;16.15;;;5.32;;
63046;SDS011;62025;39.238;9.126;2023-07-16T07:12:02;11.55;;;5.45;;
63046;SDS011;62025;39.238;9.126;2023-07-16T07:14:29;12.15;;;5.47;;
63046;SDS011;62025;39.238;9.126;2023-07-16T07:16:55;12.40;;;4.40;;
63046;SDS011;62025;39.238;9.126;2023-07-16T07:19:20;12.75;;;5.30;;
63046;SDS011;62025;39.238;9.126;2023-07-16T07:21:46;10.02;;;4.80;;
63046;SDS011;62025;39.238;9.126;2023-07-16T07:24:12;16.75;;;4.95;;
63046;SDS011;62025;39.238;9.126;2023-07-16T07:26:38;12.80;;;5.10;;
63046;SDS011;62025;39.238;9.126;2023-07-16T07:29:04;10.15;;;4.82;;
63046;SDS011;62025;39.238;9.126;2023-07-16T07:31:30;12.40;;;4.80;;
63046;SDS011;62025;39.238;9.126;2023-07-16T07:33:56;10.80;;;4.60;;
63046;SDS011;62025;39.238;9.126;2023-07-16T07:36:23;15.93;;;4.80;;
63046;SDS011;62025;39.238;9.126;2023-07-16T07:38:49;11.50;;;4.53;;
63046;SDS011;62025;39.238;9.126;2023-07-16T07:41:15;11.15;;;4.72;;
63046;SDS011;62025;39.238;9.126;2023-07-16T07:43:42;11.15;;;4.40;;
63046;SDS011;62025;39.238;9.126;2023-07-16T07:46:08;11.45;;;4.50;;
63046;SDS011;62025;39.238;9.126;2023-07-16T07:48:35;15.48;;;5.32;;
63046;SDS011;62025;39.238;9.126;2023-07-16T07:51:01;13.55;;;4.78;;
63046;SDS011;62025;39.238;9.126;2023-07-16T07:53:27;15.73;;;4.57;;
63046;SDS011;62025;39.238;9.126;2023-07-16T07:55:53;12.38;;;4.25;;
63046;SDS011;62025;39.238;9.126;2023-07-16T07:58:19;16.92;;;4.90;;
63046;SDS011;62025;39.238;9.126;2023-07-16T08:00:45;8.88;;;4.70;;
63046;SDS011;62025;39.238;9.126;2023-07-16T08:03:11;11.65;;;4.43;;
63046;SDS011;62025;39.238;9.126;2023-07-16T08:05:37;14.07;;;4.97;;
63046;SDS011;62025;39.238;9.126;2023-07-16T08:08:03;14.57;;;4.90;;
63046;SDS011;62025;39.238;9.126;2023-07-16T08:10:29;12.65;;;5.30;;
63046;SDS011;62025;39.238;9.126;2023-07-16T08:12:55;16.23;;;4.85;;
63046;SDS011;62025;39.238;9.126;2023-07-16T08:15:21;11.90;;;4.85;;
63046;SDS011;62025;39.238;9.126;2023-07-16T08:17:47;13.75;;;5.03;;
63046;SDS011;62025;39.238;9.126;2023-07-16T08:20:13;12.35;;;4.85;;
63046;SDS011;62025;39.238;9.126;2023-07-16T08:22:39;12.00;;;4.68;;
63046;SDS011;62025;39.238;9.126;2023-07-16T08:25:06;14.00;;;4.75;;
63046;SDS011;62025;39.238;9.126;2023-07-16T08:27:32;13.97;;;4.83;;
63046;SDS011;62025;39.238;9.126;2023-07-16T08:29:59;17.27;;;5.78;;
63046;SDS011;62025;39.238;9.126;2023-07-16T08:32:25;9.40;;;4.68;;
63046;SDS011;62025;39.238;9.126;2023-07-16T08:34:51;18.30;;;5.75;;
63046;SDS011;62025;39.238;9.126;2023-07-16T08:37:17;11.63;;;5.38;;
63046;SDS011;62025;39.238;9.126;2023-07-16T08:39:43;21.17;;;5.10;;
63046;SDS011;62025;39.238;9.126;2023-07-16T08:42:09;9.60;;;5.00;;
63046;SDS011;62025;39.238;9.126;2023-07-16T08:44:37;13.32;;;4.95;;
63046;SDS011;62025;39.238;9.126;2023-07-16T08:49:32;13.55;;;4.97;;
63046;SDS011;62025;39.238;9.126;2023-07-16T08:52:00;8.95;;;5.10;;
63046;SDS011;62025;39.238;9.126;2023-07-16T08:54:27;15.70;;;4.97;;
63046;SDS011;62025;39.238;9.126;2023-07-16T08:56:53;10.35;;;4.93;;
63046;SDS011;62025;39.238;9.126;2023-07-16T08:59:21;11.88;;;4.80;;
63046;SDS011;62025;39.238;9.126;2023-07-16T09:01:47;9.88;;;4.80;;
63046;SDS011;62025;39.238;9.126;2023-07-16T09:04:14;22.63;;;5.32;;
63046;SDS011;62025;39.238;9.126;2023-07-16T09:06:41;10.23;;;5.40;;
63046;SDS011;62025;39.238;9.126;2023-07-16T09:09:08;10.73;;;4.93;;
63046;SDS011;62025;39.238;9.126;2023-07-16T09:11:47;12.65;;;5.43;;
63046;SDS011;62025;39.238;9.126;2023-07-16T09:14:17;12.82;;;4.50;;
63046;SDS011;62025;39.238;9.126;2023-07-16T09:16:51;14.35;;;5.18;;
63046;SDS011;62025;39.238;9.126;2023-07-16T09:19:18;8.43;;;4.53;;
63046;SDS011;62025;39.238;9.126;2023-07-16T09:21:47;13.57;;;4.88;;
63046;SDS011;62025;39.238;9.126;2023-07-16T09:24:15;12.07;;;4.70;;
63046;SDS011;62025;39.238;9.126;2023-07-16T09:26:52;11.77;;;5.28;;
63046;SDS011;62025;39.238;9.126;2023-07-16T09:29:20;10.25;;;5.20;;
63046;SDS011;62025;39.238;9.126;2023-07-16T09:32:00;14.43;;;4.82;;
63046;SDS011;62025;39.238;9.126;2023-07-16T09:34:30;12.00;;;4.20;;
63046;SDS011;62025;39.238;9.126;2023-07-16T09:36:57;12.17;;;4.73;;
63046;SDS011;62025;39.238;9.126;2023-07-16T09:41:51;10.23;;;4.70;;
63046;SDS011;62025;39.238;9.126;2023-07-16T09:44:18;8.02;;;4.60;;
63046;SDS011;62025;39.238;9.126;2023-07-16T09:46:45;8.83;;;4.77;;
63046;SDS011;62025;39.238;9.126;2023-07-16T09:49:13;11.20;;;5.10;;
63046;SDS011;62025;39.238;9.126;2023-07-16T09:51:40;10.50;;;4.65;;
63046;SDS011;62025;39.238;9.126;2023-07-16T09:54:09;9.70;;;4.68;;
63046;SDS011;62025;39.238;9.126;2023-07-16T09:56:41;10.68;;;5.00;;
63046;SDS011;62025;39.238;9.126;2023-07-16T09:59:16;9.38;;;4.45;;
63046;SDS011;62025;39.238;9.126;2023-07-16T10:01:46;12.43;;;5.47;;
63046;SDS011;62025;39.238;9.126;2023-07-16T10:04:18;9.60;;;4.28;;
63046;SDS011;62025;39.238;9.126;2023-07-16T10:06:54;12.25;;;4.72;;
63046;SDS011;62025;39.238;9.126;2023-07-16T10:09:42;12.95;;;4.88;;
63046;SDS011;62025;39.238;9.126;2023-07-16T10:12:22;11.63;;;4.63;;
63046;SDS011;62025;39.238;9.126;2023-07-16T10:14:51;10.05;;;4.55;;
63046;SDS011;62025;39.238;9.126;2023-07-16T10:17:29;9.38;;;4.18;;
63046;SDS011;62025;39.238;9.126;2023-07-16T10:22:38;8.75;;;4.50;;
63046;SDS011;62025;39.238;9.126;2023-07-16T10:27:43;9.77;;;4.53;;
63046;SDS011;62025;39.238;9.126;2023-07-16T10:30:11;7.40;;;4.57;;
63046;SDS011;62025;39.238;9.126;2023-07-16T10:32:37;11.68;;;5.00;;
63046;SDS011;62025;39.238;9.126;2023-07-16T10:35:05;8.35;;;4.40;;
63046;SDS011;62025;39.238;9.126;2023-07-16T10:37:36;10.77;;;4.70;;
63046;SDS011;62025;39.238;9.126;2023-07-16T10:42:32;6.50;;;4.10;;
63046;SDS011;62025;39.238;9.126;2023-07-16T10:44:59;8.18;;;4.60;;
63046;SDS011;62025;39.238;9.126;2023-07-16T10:47:31;10.70;;;4.47;;
63046;SDS011;62025;39.238;9.126;2023-07-16T10:50:05;8.90;;;4.65;;
63046;SDS011;62025;39.238;9.126;2023-07-16T10:52:35;9.98;;;4.57;;
63046;SDS011;62025;39.238;9.126;2023-07-16T10:55:02;9.90;;;4.53;;
63046;SDS011;62025;39.238;9.126;2023-07-16T10:57:29;9.85;;;4.47;;
63046;SDS011;62025;39.238;9.126;2023-07-16T10:59:57;11.57;;;4.13;;
63046;SDS011;62025;39.238;9.126;2023-07-16T11:02:24;8.25;;;4.40;;
63046;SDS011;62025;39.238;9.126;2023-07-16T11:04:51;7.13;;;4.28;;
63046;SDS011;62025;39.238;9.126;2023-07-16T11:07:22;8.00;;;4.43;;
63046;SDS011;62025;39.238;9.126;2023-07-16T11:09:50;8.88;;;4.45;;
63046;SDS011;62025;39.238;9.126;2023-07-16T11:12:19;6.70;;;3.80;;
63046;SDS011;62025;39.238;9.126;2023-07-16T11:14:50;17.92;;;5.20;;
63046;SDS011;62025;39.238;9.126;2023-07-16T11:17:19;11.15;;;4.00;;
63046;SDS011;62025;39.238;9.126;2023-07-16T11:19:48;7.13;;;3.53;;
63046;SDS011;62025;39.238;9.126;2023-07-16T11:22:16;9.77;;;3.92;;
63046;SDS011;62025;39.238;9.126;2023-07-16T11:24:51;13.20;;;3.63;;
63046;SDS011;62025;39.238;9.126;2023-07-16T11:27:19;4.60;;;3.65;;
63046;SDS011;62025;39.238;9.126;2023-07-16T11:29:54;7.68;;;3.50;;
63046;SDS011;62025;39.238;9.126;2023-07-16T11:32:26;7.45;;;3.38;;
63046;SDS011;62025;39.238;9.126;2023-07-16T11:35:10;7.72;;;3.30;;
63046;SDS011;62025;39.238;9.126;2023-07-16T11:37:42;14.20;;;3.65;;
63046;SDS011;62025;39.238;9.126;2023-07-16T11:40:09;10.35;;;3.78;;
63046;SDS011;62025;39.238;9.126;2023-07-16T11:42:40;6.15;;;3.53;;
63046;SDS011;62025;39.238;9.126;2023-07-16T11:45:19;6.78;;;3.50;;
63046;SDS011;62025;39.238;9.126;2023-07-16T11:47:51;9.07;;;4.20;;
63046;SDS011;62025;39.238;9.126;2023-07-16T11:50:18;6.97;;;3.53;;
63046;SDS011;62025;39.238;9.126;2023-07-16T11:52:54;10.50;;;3.78;;
63046;SDS011;62025;39.238;9.126;2023-07-16T11:55:24;10.52;;;3.47;;
63046;SDS011;62025;39.238;9.126;2023-07-16T11:57:50;7.25;;;3.33;;
63046;SDS011;62025;39.238;9.126;2023-07-16T12:00:17;8.35;;;4.40;;
63046;SDS011;62025;39.238;9.126;2023-07-16T12:02:43;10.57;;;3.90;;
63046;SDS011;62025;39.238;9.126;2023-07-16T12:05:16;5.82;;;3.50;;
63046;SDS011;62025;39.238;9.126;2023-07-16T12:07:44;12.02;;;3.95;;
63046;SDS011;62025;39.238;9.126;2023-07-16T12:10:10;7.03;;;3.67;;
63046;SDS011;62025;39.238;9.126;2023-07-16T12:12:36;8.75;;;3.70;;
63046;SDS011;62025;39.238;9.126;2023-07-16T12:15:05;12.43;;;4.20;;
63046;SDS011;62025;39.238;9.126;2023-07-16T12:17:34;9.13;;;3.50;;
63046;SDS011;62025;39.238;9.126;2023-07-16T12:20:01;9.95;;;3.70;;
63046;SDS011;62025;39.238;9.126;2023-07-16T12:22:29;9.05;;;3.60;;
63046;SDS011;62025;39.238;9.126;2023-07-16T12:24:55;6.78;;;3.83;;
63046;SDS011;62025;39.238;9.126;2023-07-16T12:27:21;10.38;;;4.20;;
63046;SDS011;62025;39.238;9.126;2023-07-16T12:29:47;10.10;;;3.83;;
63046;SDS011;62025;39.238;9.126;2023-07-16T12:32:13;10.20;;;4.13;;
63046;SDS011;62025;39.238;9.126;2023-07-16T12:34:39;6.53;;;3.90;;
63046;SDS011;62025;39.238;9.126;2023-07-16T12:37:05;9.75;;;3.88;;
63046;SDS011;62025;39.238;9.126;2023-07-16T12:39:32;7.63;;;3.88;;
63046;SDS011;62025;39.238;9.126;2023-07-16T12:41:58;9.13;;;4.18;;
63046;SDS011;62025;39.238;9.126;2023-07-16T12:44:24;7.32;;;4.18;;
63046;SDS011;62025;39.238;9.126;2023-07-16T12:46:50;6.38;;;4.15;;
63046;SDS011;62025;39.238;9.126;2023-07-16T12:49:16;6.75;;;4.47;;
63046;SDS011;62025;39.238;9.126;2023-07-16T12:51:42;7.15;;;4.53;;
63046;SDS011;62025;39.238;9.126;2023-07-16T12:54:08;6.47;;;4.22;;
63046;SDS011;62025;39.238;9.126;2023-07-16T12:56:33;7.80;;;4.07;;
63046;SDS011;62025;39.238;9.126;2023-07-16T12:58:59;9.73;;;4.30;;
63046;SDS011;62025;39.238;9.126;2023-07-16T13:01:25;8.15;;;4.22;;
63046;SDS011;62025;39.238;9.126;2023-07-16T13:03:51;7.88;;;4.72;;
63046;SDS011;62025;39.238;9.126;2023-07-16T13:06:17;6.38;;;4.20;;
63046;SDS011;62025;39.238;9.126;2023-07-16T13:08:43;7.60;;;4.35;;
63046;SDS011;62025;39.238;9.126;2023-07-16T13:11:09;6.13;;;4.20;;
63046;SDS011;62025;39.238;9.126;2023-07-16T13:13:35;8.20;;;4.50;;
63046;SDS011;62025;39.238;9.126;2023-07-16T13:16:01;8.02;;;4.50;;
63046;SDS011;62025;39.238;9.126;2023-07-16T13:18:27;7.78;;;4.57;;
63046;SDS011;62025;39.238;9.126;2023-07-16T13:20:54;7.57;;;4.60;;
63046;SDS011;62025;39.238;9.126;2023-07-16T13:23:19;13.02;;;4.75;;
63046;SDS011;62025;39.238;9.126;2023-07-16T13:25:45;6.03;;;4.22;;
63046;SDS011;62025;39.238;9.126;2023-07-16T13:28:16;7.85;;;4.57;;
63046;SDS011;62025;39.238;9.126;2023-07-16T13:30:42;7.68;;;4.70;;
63046;SDS011;62025;39.238;9.126;2023-07-16T13:33:08;9.93;;;4.78;;
63046;SDS011;62025;39.238;9.126;2023-07-16T13:35:34;9.63;;;5.05;;
63046;SDS011;62025;39.238;9.126;2023-07-16T13:38:00;12.70;;;4.80;;
63046;SDS011;62025;39.238;9.126;2023-07-16T13:40:26;8.35;;;5.13;;
63046;SDS011;62025;39.238;9.126;2023-07-16T13:42:52;11.77;;;5.03;;
63046;SDS011;62025;39.238;9.126;2023-07-16T13:45:18;10.10;;;4.90;;
63046;SDS011;62025;39.238;9.126;2023-07-16T13:47:44;8.82;;;4.90;;
63046;SDS011;62025;39.238;9.126;2023-07-16T13:50:10;9.50;;;5.10;;
63046;SDS011;62025;39.238;9.126;2023-07-16T13:52:36;10.65;;;5.28;;
63046;SDS011;62025;39.238;9.126;2023-07-16T13:55:03;7.50;;;4.70;;
63046;SDS011;62025;39.238;9.126;2023-07-16T13:57:30;6.57;;;4.63;;
63046;SDS011;62025;39.238;9.126;2023-07-16T13:59:56;7.30;;;4.60;;
63046;SDS011;62025;39.238;9.126;2023-07-16T14:02:22;7.28;;;4.88;;
63046;SDS011;62025;39.238;9.126;2023-07-16T14:04:48;9.57;;;5.10;;
63046;SDS011;62025;39.238;9.126;2023-07-16T14:07:14;7.78;;;4.80;;
63046;SDS011;62025;39.238;9.126;2023-07-16T14:09:40;11.88;;;5.40;;
63046;SDS011;62025;39.238;9.126;2023-07-16T14:12:06;10.07;;;5.40;;
63046;SDS011;62025;39.238;9.126;2023-07-16T14:14:32;8.07;;;5.10;;
63046;SDS011;62025;39.238;9.126;2023-07-16T14:16:58;7.93;;;4.95;;
63046;SDS011;62025;39.238;9.126;2023-07-16T14:19:24;9.35;;;5.00;;
63046;SDS011;62025;39.238;9.126;2023-07-16T14:21:50;7.00;;;5.03;;
63046;SDS011;62025;39.238;9.126;2023-07-16T14:24:16;7.15;;;5.03;;
63046;SDS011;62025;39.238;9.126;2023-07-16T14:26:42;8.10;;;5.53;;
63046;SDS011;62025;39.238;9.126;2023-07-16T14:29:08;6.97;;;4.82;;
63046;SDS011;62025;39.238;9.126;2023-07-16T14:31:36;8.13;;;5.00;;
63046;SDS011;62025;39.238;9.126;2023-07-16T14:34:02;6.03;;;4.90;;
63046;SDS011;62025;39.238;9.126;2023-07-16T14:36:28;9.07;;;5.00;;
63046;SDS011;62025;39.238;9.126;2023-07-16T14:38:54;5.93;;;4.60;;
63046;SDS011;62025;39.238;9.126;2023-07-16T14:41:20;8.20;;;5.25;;
63046;SDS011;62025;39.238;9.126;2023-07-16T14:43:47;7.25;;;4.95;;
63046;SDS011;62025;39.238;9.126;2023-07-16T14:46:15;14.98;;;5.10;;
63046;SDS011;62025;39.238;9.126;2023-07-16T14:48:44;8.18;;;5.05;;
63046;SDS011;62025;39.238;9.126;2023-07-16T14:51:11;6.97;;;5.15;;
63046;SDS011;62025;39.238;9.126;2023-07-16T14:53:38;6.83;;;5.43;;
63046;SDS011;62025;39.238;9.126;2023-07-16T14:56:04;9.20;;;5.10;;
63046;SDS011;62025;39.238;9.126;2023-07-16T14:58:32;9.32;;;5.25;;
63046;SDS011;62025;39.238;9.126;2023-07-16T15:01:02;8.80;;;5.20;;
63046;SDS011;62025;39.238;9.126;2023-07-16T15:03:32;6.75;;;4.93;;